Time;durP1;ratioP1;P1;durP2;ratioP2;P2;SDS_P1;SDS_P2;PMS_P1;PMS_P2;Temp;Humidity;BMP_temperature;BMP_pressure;BME280_temperature;BME280_humidity;BME280_pressure;Samples;Min_cycle;Max_cycle;Signal;HPM_P1;HPM_P2
2021/12/17 00:00:19;;;;;;;;;;;;;;;13.82;57.88;102730.75;4983275;28;121446;-70
2021/12/17 00:05:45;;;;;;;;;;;;;;;13.82;57.59;102730.75;4983589;28;98287;-70
2021/12/17 00:08:11;;;;;;;;;;;;;;;13.82;57.68;102734.28;4966961;28;97942;-60
2021/12/17 00:10:37;;;;;;;;;;;;;;;13.82;58.00;102731.59;4986470;28;97847;-69
2021/12/17 00:13:03;;;;;;;;;;;;;;;13.83;57.89;102743.25;4985212;28;98039;-69
2021/12/17 00:15:29;;;;;;;;;;;;;;;13.81;57.59;102748.91;4986042;28;99633;-70
2021/12/17 00:18:01;;;;;;;;;;;;;;;13.82;57.98;102752.44;4978741;28;127646;-70
2021/12/17 00:48:35;;;;;;;;;;;;;;;13.82;57.81;102731.59;4964201;28;98382;-70
2021/12/17 00:53:56;;;;;;;;;;;;;;;13.83;57.53;102718.84;4963113;28;97921;-60
2021/12/17 00:56:22;;;;;;;;;;;;;;;13.82;57.68;102707.19;4978214;28;97764;-60
2021/12/17 00:58:48;;;;;;;;;;;;;;;13.82;57.88;102714.50;4963198;28;103768;-60
2021/12/17 01:01:14;;;;;;;;;;;;;;;13.82;57.76;102723.47;4963406;28;128641;-60
2021/12/17 01:03:40;;;;;;;;;;;;;;;13.82;57.75;102720.75;4964812;28;99379;-60
2021/12/17 01:06:06;;;;;;;;;;;;;;;13.83;57.52;102711.53;4962035;28;120587;-60
2021/12/17 01:08:32;;;;;;;;;;;;;;;13.83;57.57;102716.16;4965631;28;101025;-70
2021/12/17 01:10:58;;;;;;;;;;;;;;;13.84;57.55;102706.97;4963542;28;127972;-70
2021/12/17 01:13:24;;;;;;;;;;;;;;;13.82;57.73;102709.91;4963966;28;97734;-60
2021/12/17 01:15:50;;;;;;;;;;;;;;;13.83;57.43;102716.16;4964514;28;97763;-61
2021/12/17 01:18:19;;;;;;;;;;;;;;;13.83;57.73;102705.31;4966151;28;98695;-60
2021/12/17 01:21:05;;;;;;;;;;;;;;;13.83;57.63;102702.59;4965381;28;98304;-60
2021/12/17 01:36:46;;;;;;;;;;;;;;;13.81;57.56;102721.00;4967769;28;98066;-60
2021/12/17 01:44:22;;;;;;;;;;;;;;;13.80;57.90;102728.31;4980905;28;98028;-70
2021/12/17 01:46:51;;;;;;;;;;;;;;;13.81;57.37;102726.41;4977923;28;97836;-60
2021/12/17 02:00:06;;;;;;;;;;;;;;;13.81;57.65;102726.41;4985490;28;98119;-69
2021/12/17 02:02:38;;;;;;;;;;;;;;;13.81;57.59;102732.66;4985100;28;98973;-70
2021/12/17 02:05:04;;;;;;;;;;;;;;;13.81;57.57;102738.06;4982272;28;97855;-69
2021/12/17 02:07:30;;;;;;;;;;;;;;;13.81;57.55;102748.91;4965861;28;102727;-60
2021/12/17 02:31:44;;;;;;;;;;;;;;;13.81;57.44;102721.81;4979577;28;98402;-70
2021/12/17 02:36:44;;;;;;;;;;;;;;;13.81;57.27;102729.13;4975831;28;97776;-60
2021/12/17 02:47:20;;;;;;;;;;;;;;;13.81;57.31;102729.13;4968223;28;97876;-60
2021/12/17 02:49:46;;;;;;;;;;;;;;;13.81;57.63;102729.13;4979164;28;122870;-60
2021/12/17 02:52:12;;;;;;;;;;;;;;;13.81;57.40;102721.00;4980922;28;98419;-69
2021/12/17 02:54:38;;;;;;;;;;;;;;;13.80;57.27;102736.44;4983947;28;119761;-70
2021/12/17 02:57:05;;;;;;;;;;;;;;;13.80;57.69;102733.72;4971605;28;110005;-60
2021/12/17 02:59:35;;;;;;;;;;;;;;;13.81;57.57;102738.06;4966145;28;97833;-70
2021/12/17 03:02:02;;;;;;;;;;;;;;;13.81;57.61;102740.78;4981580;28;98397;-70
2021/12/17 03:04:29;;;;;;;;;;;;;;;13.81;57.63;102732.66;4984636;28;114321;-58
2021/12/17 03:06:55;;;;;;;;;;;;;;;13.81;57.29;102735.38;4974786;28;98387;-70
2021/12/17 03:09:35;;;;;;;;;;;;;;;13.82;57.46;102722.63;4983040;28;97952;-60
2021/12/17 03:12:00;;;;;;;;;;;;;;;13.81;57.42;102721.00;4984426;28;98509;-60
2021/12/17 03:14:28;;;;;;;;;;;;;;;13.81;57.27;102719.09;4985055;28;127442;-61
2021/12/17 03:17:05;;;;;;;;;;;;;;;13.81;57.65;102735.38;4981342;28;98588;-70
2021/12/17 03:25:05;;;;;;;;;;;;;;;13.82;57.54;102728.06;4986149;28;98225;-70
2021/12/17 03:27:31;;;;;;;;;;;;;;;13.82;57.54;102722.63;4970998;28;117097;-69
2021/12/17 03:29:57;;;;;;;;;;;;;;;13.82;57.54;102712.63;4984842;28;122218;-69
2021/12/17 03:32:23;;;;;;;;;;;;;;;13.83;57.58;102725.09;4985244;28;125975;-60
2021/12/17 03:34:50;;;;;;;;;;;;;;;13.83;57.52;102727.00;4985135;28;98359;-61
2021/12/17 03:37:16;;;;;;;;;;;;;;;13.83;57.30;102721.56;4968344;28;98551;-60
2021/12/17 03:39:42;;;;;;;;;;;;;;;13.83;57.52;102732.41;4985065;28;122608;-60
2021/12/17 03:42:09;;;;;;;;;;;;;;;13.83;57.41;102724.28;4983988;28;128161;-60
2021/12/17 03:44:35;;;;;;;;;;;;;;;13.83;57.14;102718.84;4986405;28;98343;-61
2021/12/17 03:47:02;;;;;;;;;;;;;;;13.82;57.67;102720.75;4986677;28;98857;-69
2021/12/17 03:49:28;;;;;;;;;;;;;;;13.81;57.37;102716.41;4983458;28;100271;-61
2021/12/17 03:52:04;;;;;;;;;;;;;;;13.81;57.48;102718.28;4986134;28;128316;-70
2021/12/17 03:54:34;;;;;;;;;;;;;;;13.81;57.12;102716.41;4987374;28;98869;-69
2021/12/17 03:57:00;;;;;;;;;;;;;;;13.82;57.28;102717.22;4972445;28;118786;-70
2021/12/17 03:59:26;;;;;;;;;;;;;;;13.81;57.50;102712.84;4985509;28;97880;-70
2021/12/17 04:01:52;;;;;;;;;;;;;;;13.81;57.28;102712.84;4986564;28;128170;-69
2021/12/17 04:04:18;;;;;;;;;;;;;;;13.80;57.24;102717.47;4987275;28;126369;-60
2021/12/17 04:06:44;;;;;;;;;;;;;;;13.79;57.09;102725.81;4978675;28;98550;-69
2021/12/17 04:09:10;;;;;;;;;;;;;;;13.79;57.52;102715.78;4983829;28;114143;-60
2021/12/17 04:11:36;;;;;;;;;;;;;;;13.78;57.19;102711.44;4985073;28;128116;-60
2021/12/17 04:14:02;;;;;;;;;;;;;;;13.77;57.58;102707.09;4985086;28;98436;-60
2021/12/17 04:16:31;;;;;;;;;;;;;;;13.77;57.50;102708.97;4980176;28;99789;-70
2021/12/17 04:18:57;;;;;;;;;;;;;;;13.77;57.46;102700.84;4978898;28;98045;-69
2021/12/17 04:21:23;;;;;;;;;;;;;;;13.77;57.40;102700.84;4987748;28;98803;-60
2021/12/17 04:23:50;;;;;;;;;;;;;;;13.75;57.05;102696.50;4984312;28;98207;-70
2021/12/17 04:26:16;;;;;;;;;;;;;;;13.76;57.18;102697.31;4984401;28;97954;-60
2021/12/17 04:28:48;;;;;;;;;;;;;;;13.75;57.24;102704.63;4977280;28;97969;-60
2021/12/17 04:31:15;;;;;;;;;;;;;;;13.75;57.24;102698.34;4986722;28;98253;-70
2021/12/17 04:33:42;;;;;;;;;;;;;;;13.75;56.98;102710.03;4984169;28;98839;-60
2021/12/17 04:36:09;;;;;;;;;;;;;;;13.75;57.46;102712.75;4986666;28;97742;-70
2021/12/17 04:38:35;;;;;;;;;;;;;;;13.75;57.06;102709.19;4972885;28;97942;-61
2021/12/17 04:41:38;;;;;;;;;;;;;;;13.74;57.03;102713.78;4985401;28;98789;-60
2021/12/17 04:46:35;;;;;;;;;;;;;;;13.73;57.30;102706.72;4982745;28;97877;-70
2021/12/17 04:57:28;;;;;;;;;;;;;;;13.74;57.15;102716.50;4968643;28;97794;-60
2021/12/17 04:59:58;;;;;;;;;;;;;;;13.74;57.26;102711.06;4986525;28;97875;-60
2021/12/17 05:02:24;;;;;;;;;;;;;;;13.73;57.38;102712.13;4986428;28;98846;-70
2021/12/17 05:04:52;;;;;;;;;;;;;;;13.73;56.98;102720.28;4987744;28;98240;-70
2021/12/17 05:07:18;;;;;;;;;;;;;;;13.73;57.22;102728.41;4969478;28;98082;-71
2021/12/17 05:09:53;;;;;;;;;;;;;;;13.72;56.89;102724.06;4986017;28;97666;-70
2021/12/17 05:20:56;;;;;;;;;;;;;;;13.73;56.97;102725.69;4981960;28;98050;-70
2021/12/17 05:23:23;;;;;;;;;;;;;;;13.72;57.23;102718.63;4985308;28;99834;-61
2021/12/17 05:25:50;;;;;;;;;;;;;;;13.72;56.91;102701.53;4965294;28;99069;-70
2021/12/17 05:28:16;;;;;;;;;;;;;;;13.71;57.01;102714.25;4977879;28;97836;-70
2021/12/17 05:30:46;;;;;;;;;;;;;;;13.72;57.07;102715.91;4985978;28;97878;-70
2021/12/17 05:33:13;;;;;;;;;;;;;;;13.72;56.91;102707.78;4988776;28;97675;-70
2021/12/17 05:35:39;;;;;;;;;;;;;;;13.71;56.73;102719.66;4988798;28;98205;-70
2021/12/17 05:38:05;;;;;;;;;;;;;;;13.72;57.09;102724.06;4972909;28;98083;-70
2021/12/17 05:40:31;;;;;;;;;;;;;;;13.71;56.81;102722.38;4989026;28;113281;-70
2021/12/17 05:43:00;;;;;;;;;;;;;;;13.71;57.05;102725.09;4988537;28;98280;-70
2021/12/17 05:45:35;;;;;;;;;;;;;;;13.72;56.66;102732.19;4988576;28;98312;-70
2021/12/17 05:48:06;;;;;;;;;;;;;;;13.72;56.87;102721.34;4960203;28;97937;-70
2021/12/17 05:50:32;;;;;;;;;;;;;;;13.72;57.22;102717.81;4989325;28;98054;-71
2021/12/17 05:52:58;;;;;;;;;;;;;;;13.72;57.12;102717.81;4989237;28;98238;-70
2021/12/17 05:55:24;;;;;;;;;;;;;;;13.72;57.16;102726.75;4989375;28;98609;-70
2021/12/17 05:57:52;;;;;;;;;;;;;;;13.73;56.87;102708.59;4973126;28;98300;-70
2021/12/17 06:00:19;;;;;;;;;;;;;;;13.73;57.03;102703.19;4970411;28;97752;-70
2021/12/17 06:02:45;;;;;;;;;;;;;;;13.72;56.89;102694.25;4989995;28;98940;-71
2021/12/17 06:05:10;;;;;;;;;;;;;;;13.71;57.17;102699.88;4988106;28;128283;-71
2021/12/17 06:07:36;;;;;;;;;;;;;;;13.72;56.88;102707.78;4980220;28;120970;-70
2021/12/17 06:10:04;;;;;;;;;;;;;;;13.72;56.67;102715.09;4988416;28;122664;-71
2021/12/17 06:12:30;;;;;;;;;;;;;;;13.70;56.69;102704.47;4989387;28;98132;-70
2021/12/17 06:14:56;;;;;;;;;;;;;;;13.72;56.74;102715.09;4989218;28;98815;-71
2021/12/17 06:17:22;;;;;;;;;;;;;;;13.71;57.06;102705.28;4978580;28;127759;-70
2021/12/17 06:19:48;;;;;;;;;;;;;;;13.69;56.62;102708.25;4987561;28;122399;-70
2021/12/17 06:22:15;;;;;;;;;;;;;;;13.71;56.74;102713.41;4987132;28;98840;-70
2021/12/17 06:24:44;;;;;;;;;;;;;;;13.70;56.90;102709.88;4989269;28;98708;-70
2021/12/17 06:27:11;;;;;;;;;;;;;;;13.70;56.71;102703.66;4955081;28;98531;-70
2021/12/17 06:29:37;;;;;;;;;;;;;;;13.69;56.88;102702.81;4949316;28;97725;-70
2021/12/17 06:32:04;;;;;;;;;;;;;;;13.69;56.85;102710.97;4980918;28;120032;-70
2021/12/17 06:34:30;;;;;;;;;;;;;;;13.70;56.83;102698.22;4987875;28;114286;-71
2021/12/17 06:36:56;;;;;;;;;;;;;;;13.69;56.79;102691.16;4973242;28;98782;-70
2021/12/17 06:39:24;;;;;;;;;;;;;;;13.69;56.54;102691.16;4985697;28;121518;-70
2021/12/17 06:41:50;;;;;;;;;;;;;;;13.69;56.61;102691.16;4989643;28;98006;-70
2021/12/17 06:44:21;;;;;;;;;;;;;;;13.69;56.71;102689.28;4986638;28;98317;-70
2021/12/17 06:49:47;;;;;;;;;;;;;;;13.68;56.66;102689.53;4985773;28;97789;-71
2021/12/17 06:58:40;;;;;;;;;;;;;;;13.68;56.70;102697.66;4916680;28;98301;-70
2021/12/17 07:01:13;;;;;;;;;;;;;;;13.68;56.51;102700.38;4924908;28;98033;-70
2021/12/17 07:07:05;;;;;;;;;;;;;;;13.66;56.94;102708.72;4972420;27;97991;-61
2021/12/17 07:11:56;;;;;;;;;;;;;;;13.66;56.84;102713.31;4974836;28;97711;-61
2021/12/17 07:17:18;;;;;;;;;;;;;;;13.66;56.39;102711.41;4971038;28;98011;-62
2021/12/17 07:22:50;;;;;;;;;;;;;;;13.66;56.57;102711.41;4977690;28;97800;-61
2021/12/17 07:33:38;;;;;;;;;;;;;;;13.69;56.44;102724.50;4905655;28;98270;-70
2021/12/17 07:36:11;;;;;;;;;;;;;;;13.69;56.40;102735.34;4945133;28;98707;-70
2021/12/17 07:38:40;;;;;;;;;;;;;;;13.69;56.52;102743.47;4965891;28;97995;-70
2021/12/17 07:41:06;;;;;;;;;;;;;;;13.70;56.52;102742.41;4986610;27;97955;-70
2021/12/17 07:43:37;;;;;;;;;;;;;;;13.71;56.55;102744.06;4987889;28;97912;-70
2021/12/17 07:46:10;;;;;;;;;;;;;;;13.73;56.90;102741.97;4968858;28;99526;-70
2021/12/17 07:48:37;;;;;;;;;;;;;;;13.73;56.67;102733.81;4987226;28;98130;-70
2021/12/17 07:51:05;;;;;;;;;;;;;;;13.74;56.30;102737.34;4987158;28;98084;-70
2021/12/17 07:53:31;;;;;;;;;;;;;;;13.74;56.38;102743.59;4986969;28;110958;-70
2021/12/17 07:55:58;;;;;;;;;;;;;;;13.75;56.34;102749.84;4986127;28;98180;-70
2021/12/17 07:58:23;;;;;;;;;;;;;;;13.75;56.32;102742.56;4970821;28;97813;-70
2021/12/17 08:00:49;;;;;;;;;;;;;;;13.75;56.65;102739.84;4968087;28;122734;-70
2021/12/17 08:03:15;;;;;;;;;;;;;;;13.76;56.50;102740.69;4980274;28;98315;-61
2021/12/17 08:05:44;;;;;;;;;;;;;;;13.78;56.36;102752.09;4978305;28;99156;-61
2021/12/17 08:08:11;;;;;;;;;;;;;;;13.77;56.30;102753.16;4969418;28;98229;-61
2021/12/17 08:10:36;;;;;;;;;;;;;;;13.78;56.70;102751.28;4977030;28;128176;-61
2021/12/17 08:13:05;;;;;;;;;;;;;;;13.80;56.21;102741.03;4976090;28;122858;-61
2021/12/17 08:15:37;;;;;;;;;;;;;;;13.78;56.61;102727.69;4977245;28;98037;-60
2021/12/17 08:18:42;;;;;;;;;;;;;;;13.80;56.16;102724.78;4960343;28;98901;-60
2021/12/17 08:28:28;;;;;;;;;;;;;;;13.83;56.18;102749.50;4956581;28;114166;-61
2021/12/17 08:30:54;;;;;;;;;;;;;;;13.84;56.44;102748.47;4978102;28;98172;-60
2021/12/17 08:33:21;;;;;;;;;;;;;;;13.86;56.38;102748.22;4976427;28;122413;-60
2021/12/17 08:35:47;;;;;;;;;;;;;;;13.86;56.60;102749.03;4957731;28;98812;-61
2021/12/17 08:38:13;;;;;;;;;;;;;;;13.87;56.31;102747.16;4960125;28;128173;-70
2021/12/17 08:40:39;;;;;;;;;;;;;;;13.88;56.41;102759.66;4982086;28;98547;-60
2021/12/17 08:43:05;;;;;;;;;;;;;;;13.88;56.47;102760.50;4981744;28;98252;-70
2021/12/17 08:45:31;;;;;;;;;;;;;;;13.88;56.22;102771.31;4979458;28;99128;-61
2021/12/17 08:47:57;;;;;;;;;;;;;;;13.88;56.64;102767.78;4960094;28;98321;-61
2021/12/17 08:50:23;;;;;;;;;;;;;;;13.89;56.48;102781.09;4981093;28;97779;-61
2021/12/17 08:52:49;;;;;;;;;;;;;;;13.90;56.34;102773.78;4981286;28;122752;-70
2021/12/17 08:55:15;;;;;;;;;;;;;;;13.90;56.20;102761.06;4979879;28;128245;-70
2021/12/17 08:57:41;;;;;;;;;;;;;;;13.90;56.54;102769.19;4970014;28;98050;-70
2021/12/17 09:00:09;;;;;;;;;;;;;;;13.91;56.49;102764.59;4978228;28;98657;-61
2021/12/17 09:02:36;;;;;;;;;;;;;;;13.91;56.52;102762.72;4980310;28;114061;-61
2021/12/17 09:05:06;;;;;;;;;;;;;;;13.92;56.57;102767.09;4981798;28;98170;-60
2021/12/17 09:07:32;;;;;;;;;;;;;;;13.93;56.49;102776.03;4964152;28;99077;-70
2021/12/17 09:09:58;;;;;;;;;;;;;;;13.94;56.14;102777.69;4982114;28;97852;-70
2021/12/17 09:12:24;;;;;;;;;;;;;;;13.94;56.28;102781.22;4964668;28;97884;-60
2021/12/17 09:14:50;;;;;;;;;;;;;;;13.95;56.57;102784.75;4981603;28;114366;-70
2021/12/17 09:17:18;;;;;;;;;;;;;;;13.96;56.23;102783.72;4979440;28;122047;-61
2021/12/17 09:19:44;;;;;;;;;;;;;;;13.96;56.38;102778.28;4982723;28;98282;-70
2021/12/17 09:22:10;;;;;;;;;;;;;;;13.98;56.20;102781.59;4980506;28;121950;-70
2021/12/17 09:24:36;;;;;;;;;;;;;;;13.98;56.23;102782.41;4981138;28;128039;-71
2021/12/17 09:27:02;;;;;;;;;;;;;;;13.99;56.37;102788.69;4980810;28;125467;-69
2021/12/17 09:29:28;;;;;;;;;;;;;;;14.00;56.59;102774.88;4982532;28;98348;-60
2021/12/17 09:31:54;;;;;;;;;;;;;;;14.01;56.22;102772.97;4981305;28;124072;-61
2021/12/17 09:34:20;;;;;;;;;;;;;;;14.02;56.55;102769.22;4979330;28;115705;-62
2021/12/17 09:36:46;;;;;;;;;;;;;;;14.03;56.63;102770.88;4972331;28;98311;-70
2021/12/17 09:39:12;;;;;;;;;;;;;;;14.03;56.58;102770.88;4978593;28;127910;-70
2021/12/17 09:41:40;;;;;;;;;;;;;;;14.04;56.50;102769.81;4979851;28;122529;-71
2021/12/17 09:44:06;;;;;;;;;;;;;;;14.04;56.48;102766.28;4978367;28;107507;-61
2021/12/17 09:46:32;;;;;;;;;;;;;;;14.05;56.19;102757.91;4979036;28;99270;-61
2021/12/17 09:48:58;;;;;;;;;;;;;;;14.05;56.43;102751.66;4971699;28;125492;-60
2021/12/17 09:51:24;;;;;;;;;;;;;;;14.06;56.23;102751.41;4962252;28;122272;-70
2021/12/17 09:53:49;;;;;;;;;;;;;;;14.07;56.61;102761.22;4984739;28;98699;-70
2021/12/17 09:56:16;;;;;;;;;;;;;;;14.09;56.59;102755.53;4982647;28;113078;-70
2021/12/17 09:58:42;;;;;;;;;;;;;;;14.08;56.50;102743.88;4971696;28;98023;-70
2021/12/17 10:01:07;;;;;;;;;;;;;;;14.10;56.37;102749.06;4984706;28;121315;-70
2021/12/17 10:03:33;;;;;;;;;;;;;;;14.10;56.42;102747.16;4981763;28;128475;-70
2021/12/17 10:05:59;;;;;;;;;;;;;;;14.11;56.40;102747.97;4985617;28;129016;-70
2021/12/17 10:08:25;;;;;;;;;;;;;;;14.11;56.67;102756.13;4976621;28;97988;-70
2021/12/17 10:11:00;;;;;;;;;;;;;;;14.13;56.19;102762.16;4983006;28;123469;-70
2021/12/17 10:13:29;;;;;;;;;;;;;;;14.13;56.70;102781.94;4984528;28;116234;-70
2021/12/17 10:16:07;;;;;;;;;;;;;;;14.11;56.34;102775.94;4984790;28;98366;-70
2021/12/17 10:18:36;;;;;;;;;;;;;;;14.13;56.65;102771.09;4984528;28;97841;-70
2021/12/17 10:21:07;;;;;;;;;;;;;;;14.13;56.49;102765.69;4984682;28;114975;-70
2021/12/17 10:23:33;;;;;;;;;;;;;;;14.13;56.76;102760.25;4985536;28;108996;-70
2021/12/17 10:25:59;;;;;;;;;;;;;;;14.14;56.71;102770.03;4984234;28;99026;-69
2021/12/17 10:28:25;;;;;;;;;;;;;;;14.14;56.72;102769.22;4976524;28;98541;-69
2021/12/17 10:30:52;;;;;;;;;;;;;;;14.13;56.42;102771.09;4984663;28;97705;-70
2021/12/17 10:33:20;;;;;;;;;;;;;;;14.17;56.23;102771.47;4986859;28;99148;-70
2021/12/17 10:35:48;;;;;;;;;;;;;;;14.17;56.62;102758.72;4985664;28;98445;-70
2021/12/17 10:38:17;;;;;;;;;;;;;;;14.20;56.32;102760.16;4968073;28;98729;-70
2021/12/17 10:41:13;;;;;;;;;;;;;;;14.20;56.41;102765.56;4966195;28;98045;-70
2021/12/17 10:43:45;;;;;;;;;;;;;;;14.19;56.75;102769.34;4963212;28;100021;-70
2021/12/17 10:46:26;;;;;;;;;;;;;;;14.21;56.58;102768.03;4949425;28;98171;-70
2021/12/17 10:49:01;;;;;;;;;;;;;;;14.21;56.68;102765.31;4977286;28;113774;-69
2021/12/17 10:54:20;;;;;;;;;;;;;;;14.22;56.72;102777.81;4983427;28;98281;-70
2021/12/17 10:56:48;;;;;;;;;;;;;;;14.23;56.62;102779.50;4975188;28;98896;-70
2021/12/17 10:59:18;;;;;;;;;;;;;;;14.23;56.71;102781.38;4982696;28;98033;-70
2021/12/17 11:01:46;;;;;;;;;;;;;;;14.22;56.42;102780.53;4984442;28;97973;-71
2021/12/17 11:04:17;;;;;;;;;;;;;;;14.23;56.77;102784.91;4984545;28;98862;-70
2021/12/17 11:07:05;;;;;;;;;;;;;;;14.24;56.46;102781.13;4978896;28;99342;-70
2021/12/17 11:09:40;;;;;;;;;;;;;;;14.24;56.75;102773.00;4984364;28;98608;-70
2021/12/17 11:12:15;;;;;;;;;;;;;;;14.25;56.75;102769.22;4984093;28;98339;-70
2021/12/17 11:14:41;;;;;;;;;;;;;;;14.25;56.57;102766.50;4984992;27;98345;-70
2021/12/17 11:17:12;;;;;;;;;;;;;;;14.27;56.89;102760.84;4969578;28;98945;-69
2021/12/17 11:19:39;;;;;;;;;;;;;;;14.28;56.86;102772.53;4987965;28;98134;-70
2021/12/17 11:22:04;;;;;;;;;;;;;;;14.27;56.47;102768.16;4986682;28;101537;-70
2021/12/17 11:24:32;;;;;;;;;;;;;;;14.28;56.66;102761.69;4984914;28;128435;-70
2021/12/17 11:26:58;;;;;;;;;;;;;;;14.27;56.67;102752.72;4972779;28;116801;-70
2021/12/17 11:29:24;;;;;;;;;;;;;;;14.30;56.86;102767.69;4984755;28;98739;-70
2021/12/17 11:31:49;;;;;;;;;;;;;;;14.31;56.50;102753.06;4951756;28;122886;-69
2021/12/17 11:34:18;;;;;;;;;;;;;;;14.32;56.80;102754.72;4985126;28;128214;-70
2021/12/17 11:36:44;;;;;;;;;;;;;;;14.30;56.51;102749.50;4981966;28;98058;-69
2021/12/17 11:39:30;;;;;;;;;;;;;;;14.31;56.86;102751.19;4981604;28;98672;-60
2021/12/17 11:42:03;;;;;;;;;;;;;;;14.32;57.00;102758.25;4983058;28;97985;-71
2021/12/17 11:44:39;;;;;;;;;;;;;;;14.33;56.91;102772.63;4979892;28;98557;-60
2021/12/17 11:47:07;;;;;;;;;;;;;;;14.33;56.85;102767.22;4954000;28;98312;-61
2021/12/17 11:49:38;;;;;;;;;;;;;;;14.33;57.05;102759.88;4964077;28;97988;-70
2021/12/17 11:52:04;;;;;;;;;;;;;;;14.34;56.69;102755.28;4982937;28;98135;-61
2021/12/17 11:54:34;;;;;;;;;;;;;;;14.36;56.91;102758.59;4983985;28;108857;-70
2021/12/17 11:57:11;;;;;;;;;;;;;;;14.36;56.54;102755.88;4952886;28;97961;-60
2021/12/17 11:59:42;;;;;;;;;;;;;;;14.38;56.90;102756.47;4951846;28;98163;-61
2021/12/17 12:02:22;;;;;;;;;;;;;;;14.39;56.63;102750.00;4976571;28;98013;-70
2021/12/17 12:04:54;;;;;;;;;;;;;;;14.40;56.53;102754.34;4981687;28;97934;-70
2021/12/17 12:07:26;;;;;;;;;;;;;;;14.42;56.95;102754.91;4964814;28;98927;-61
2021/12/17 12:10:03;;;;;;;;;;;;;;;14.42;56.93;102754.91;4982925;28;98460;-60
2021/12/17 12:12:38;;;;;;;;;;;;;;;14.44;56.57;102755.53;4982610;28;98130;-70
2021/12/17 12:15:23;;;;;;;;;;;;;;;14.42;56.70;102753.06;4982903;28;98085;-60
2021/12/17 12:17:58;;;;;;;;;;;;;;;14.42;57.12;102752.22;4965920;28;99041;-69
2021/12/17 12:20:49;;;;;;;;;;;;;;;14.41;56.64;102754.09;4985535;28;98065;-69
2021/12/17 12:23:16;;;;;;;;;;;;;;;14.40;56.83;102743.50;4977742;28;98054;-60
2021/12/17 12:25:42;;;;;;;;;;;;;;;14.40;57.01;102751.63;4980875;28;98822;-60
2021/12/17 12:28:08;;;;;;;;;;;;;;;14.40;57.11;102752.47;4973081;27;99425;-60
2021/12/17 12:30:38;;;;;;;;;;;;;;;14.39;56.86;102750.00;4979149;28;127390;-60
2021/12/17 12:33:07;;;;;;;;;;;;;;;14.39;56.95;102748.09;4980848;28;98025;-60
2021/12/17 12:35:33;;;;;;;;;;;;;;;14.41;57.13;102745.13;4981431;28;99202;-60
2021/12/17 12:38:32;;;;;;;;;;;;;;;14.40;56.83;102740.78;4965210;28;98649;-69
2021/12/17 12:41:00;;;;;;;;;;;;;;;14.40;57.18;102738.06;4963841;28;98582;-60
2021/12/17 12:43:30;;;;;;;;;;;;;;;14.41;57.00;102734.28;4972906;28;98128;-60
2021/12/17 12:45:56;;;;;;;;;;;;;;;14.42;56.91;102739.50;4982181;28;98391;-60
2021/12/17 12:48:31;;;;;;;;;;;;;;;14.43;57.14;102734.88;4971834;28;98583;-70
2021/12/17 12:51:13;;;;;;;;;;;;;;;14.44;57.12;102733.81;4984385;28;98746;-70
2021/12/17 12:53:45;;;;;;;;;;;;;;;14.45;56.74;102735.47;4981829;28;98016;-61
2021/12/17 12:56:16;;;;;;;;;;;;;;;14.44;56.71;102729.22;4974643;28;98079;-70
2021/12/17 12:58:42;;;;;;;;;;;;;;;14.45;57.10;102720.00;4976847;28;98103;-70
2021/12/17 13:01:08;;;;;;;;;;;;;;;14.45;57.09;102721.88;4960968;28;126413;-60
2021/12/17 13:03:34;;;;;;;;;;;;;;;14.45;57.03;102721.88;4979684;28;97879;-61
2021/12/17 13:06:01;;;;;;;;;;;;;;;14.47;57.13;102719.78;4982573;28;98381;-70
2021/12/17 13:08:30;;;;;;;;;;;;;;;14.45;56.82;102719.19;4975261;28;98589;-70
2021/12/17 13:10:59;;;;;;;;;;;;;;;14.48;57.16;102713.28;4983275;28;98317;-69
2021/12/17 13:13:36;;;;;;;;;;;;;;;14.47;57.15;102711.63;4980237;28;98200;-61
2021/12/17 13:16:21;;;;;;;;;;;;;;;14.48;57.19;102710.56;4981136;28;98894;-70
2021/12/17 13:21:42;;;;;;;;;;;;;;;14.48;57.13;102716.81;4976298;28;98126;-61
2021/12/17 13:24:12;;;;;;;;;;;;;;;14.49;56.93;102714.94;4983728;28;98038;-60
2021/12/17 13:27:00;;;;;;;;;;;;;;;14.50;57.16;102730.16;4972165;28;98626;-60
2021/12/17 13:29:33;;;;;;;;;;;;;;;14.48;57.06;102724.94;4976001;28;109141;-70
2021/12/17 13:32:01;;;;;;;;;;;;;;;14.48;56.99;102729.56;4982934;28;98197;-61
2021/12/17 13:34:33;;;;;;;;;;;;;;;14.49;57.08;102736.66;4981018;28;97793;-61
2021/12/17 13:37:14;;;;;;;;;;;;;;;14.49;57.15;102734.75;4966394;28;98449;-69
2021/12/17 13:39:43;;;;;;;;;;;;;;;14.52;57.12;102727.22;4981548;27;98678;-60
2021/12/17 13:42:12;;;;;;;;;;;;;;;14.51;57.24;102728.31;4981883;28;98242;-61
2021/12/17 13:44:40;;;;;;;;;;;;;;;14.48;57.29;102743.94;4980541;28;110811;-61
2021/12/17 13:47:07;;;;;;;;;;;;;;;14.48;57.02;102741.22;4965278;28;97773;-60
2021/12/17 13:49:33;;;;;;;;;;;;;;;14.47;57.30;102745.03;4978572;28;119503;-70
2021/12/17 13:51:59;;;;;;;;;;;;;;;14.47;57.33;102739.59;4962919;28;118491;-70
2021/12/17 13:54:25;;;;;;;;;;;;;;;14.46;57.26;102740.66;4980667;28;122358;-70
2021/12/17 13:56:58;;;;;;;;;;;;;;;14.46;57.35;102745.25;4955771;28;128546;-70
2021/12/17 13:59:34;;;;;;;;;;;;;;;14.45;57.02;102740.88;4977739;28;118947;-61
2021/12/17 14:02:15;;;;;;;;;;;;;;;14.43;57.24;102735.72;4961445;28;99109;-61
2021/12/17 14:04:42;;;;;;;;;;;;;;;14.42;57.04;102734.06;4980718;28;97894;-70
2021/12/17 14:07:09;;;;;;;;;;;;;;;14.41;57.29;102737.00;4962897;28;98651;-70
2021/12/17 14:09:35;;;;;;;;;;;;;;;14.41;57.33;102735.09;4980435;28;105953;-60
2021/12/17 14:12:26;;;;;;;;;;;;;;;14.40;57.34;102736.19;4981034;28;98943;-70
2021/12/17 14:14:57;;;;;;;;;;;;;;;14.40;57.41;102732.63;4962617;28;98113;-61
2021/12/17 14:17:22;;;;;;;;;;;;;;;14.39;57.32;102734.53;4970874;28;98523;-70
2021/12/17 14:19:50;;;;;;;;;;;;;;;14.37;57.43;102733.94;4980180;28;128204;-61
2021/12/17 14:22:26;;;;;;;;;;;;;;;14.37;57.05;102735.81;4980334;28;98635;-69
2021/12/17 14:24:52;;;;;;;;;;;;;;;14.36;57.42;102737.72;4981616;28;97959;-69
2021/12/17 14:27:18;;;;;;;;;;;;;;;14.35;57.14;102733.38;4963706;28;98473;-61
2021/12/17 14:29:43;;;;;;;;;;;;;;;14.34;57.23;102723.56;4973270;28;127800;-60
2021/12/17 14:32:16;;;;;;;;;;;;;;;14.34;57.58;102725.44;4978413;28;127720;-61
2021/12/17 14:34:42;;;;;;;;;;;;;;;14.32;57.53;102724.88;4979079;28;98223;-61
2021/12/17 14:37:08;;;;;;;;;;;;;;;14.32;57.42;102719.44;4960645;28;127538;-60
2021/12/17 14:39:36;;;;;;;;;;;;;;;14.29;57.54;102704.47;4977355;28;109039;-70
2021/12/17 14:42:05;;;;;;;;;;;;;;;14.28;57.22;102702.81;4959843;28;98391;-61
2021/12/17 14:44:44;;;;;;;;;;;;;;;14.28;57.13;102710.97;4977987;28;98004;-70
2021/12/17 14:47:18;;;;;;;;;;;;;;;14.27;57.20;102728.31;4970475;28;98534;-61
2021/12/17 14:59:52;;;;;;;;;;;;;;;14.21;57.15;102724.63;4976024;28;98048;-69
2021/12/17 15:01:17;;;;;;;;;;;;;;;14.20;57.19;102723.00;4980665;28;98755;-70
2021/12/17 15:03:43;;;;;;;;;;;;;;;14.20;57.63;102725.69;4984091;28;98323;-70
2021/12/17 15:06:11;;;;;;;;;;;;;;;14.20;57.50;102738.44;4962896;28;97693;-70
2021/12/17 15:08:37;;;;;;;;;;;;;;;14.19;57.20;102737.63;4972672;28;99141;-60
2021/12/17 15:11:08;;;;;;;;;;;;;;;14.18;57.59;102733.25;4980999;28;106219;-60
2021/12/17 15:13:34;;;;;;;;;;;;;;;14.19;57.16;102731.38;4983057;28;98046;-70
2021/12/17 15:16:00;;;;;;;;;;;;;;;14.17;57.64;102720.75;4946587;28;122246;-60
2021/12/17 15:18:26;;;;;;;;;;;;;;;14.16;57.87;102713.69;4945329;28;98503;-60
2021/12/17 15:20:53;;;;;;;;;;;;;;;14.16;57.55;102713.69;4981772;28;98828;-70
2021/12/17 15:23:20;;;;;;;;;;;;;;;14.15;57.22;102725.59;4981881;28;116215;-70
2021/12/17 15:25:46;;;;;;;;;;;;;;;14.15;57.62;102716.63;4980873;28;98248;-61
2021/12/17 15:28:13;;;;;;;;;;;;;;;14.15;57.32;102717.47;4971131;28;114411;-61
2021/12/17 15:30:47;;;;;;;;;;;;;;;14.15;57.37;102719.34;4978419;28;107976;-60
2021/12/17 15:33:13;;;;;;;;;;;;;;;14.15;57.42;102728.31;4982146;28;104350;-71